St Ives Cambridgeshire, United Kingdom
Current Conditions -  °F | °C
As of 3:50 PM on Wednesday 28 Jan 2015 (Local Time) from EGSC Reporting Station
Few Clouds Few Clouds  
Wind Chill:   Ceiling: Unl
Heat Index:   Visibility: 6mi
Dew Point: -2°   Wind: 21mph
Humidity: 57%   Direction: 270°W
Pressure: 29.5"   Gusts: NA
Location:  52.34°N, 0.07°W
Report Text: EGSC 281550Z 27018KT 9999 FEW024 06/M02 Q0999
Loading
Personal Weather Stations






























Interactive Weather Map New forecast layout! Learn more

10-Day Weather Forecast

Advertisements
Track Severe Weather on mobile